Time;durP1;ratioP1;P1;durP2;ratioP2;P2;SDS_P1;SDS_P2;PMS_P1;PMS_P2;Temp;Humidity;BMP_temperature;BMP_pressure;BME280_temperature;BME280_humidity;BME280_pressure;Samples;Min_cycle;Max_cycle;Signal;HPM_P1;HPM_P2
2022/06/03 00:01:55;;;;;;;0.13;0.10;;;15.80;99.90;;;;;;5013425;28;20497;-73
2022/06/03 00:05:12;;;;;;;0.00;0.00;;;16.10;99.90;;;;;;5021806;28;20039;-73
2022/06/03 00:07:54;;;;;;;0.32;0.32;;;16.20;99.90;;;;;;5042098;28;20082;-73
2022/06/03 00:10:38;;;;;;;0.00;0.00;;;16.50;99.90;;;;;;5078362;28;20048;-73
2022/06/03 00:13:26;;;;;;;0.00;0.00;;;16.70;99.90;;;;;;5071201;28;20033;-73
2022/06/03 00:16:18;;;;;;;2.83;1.90;;;16.90;99.90;;;;;;5071560;28;20526;-73
2022/06/03 00:19:19;;;;;;;0.00;0.00;;;16.60;99.90;;;;;;5068997;28;20040;-73
2022/06/03 00:21:56;;;;;;;1.15;0.25;;;17.00;99.90;;;;;;5080564;28;20028;-73
2022/06/03 00:24:45;;;;;;;0.00;0.00;;;17.80;99.90;;;;;;5080923;28;20016;-73
2022/06/03 00:27:37;;;;;;;0.20;0.10;;;18.60;99.90;;;;;;5079024;28;20020;-73
2022/06/03 00:30:22;;;;;;;0.00;0.00;;;19.60;99.90;;;;;;5072592;28;20107;-74
2022/06/03 00:33:03;;;;;;;0.00;0.00;;;20.00;99.90;;;;;;5067078;28;20017;-74
2022/06/03 00:35:46;;;;;;;0.00;0.00;;;20.20;99.90;;;;;;5071680;28;20372;-73
2022/06/03 00:38:49;;;;;;;0.00;0.00;;;20.90;99.90;;;;;;5074627;28;20044;-74
2022/06/03 00:41:25;;;;;;;0.08;0.08;;;21.70;99.90;;;;;;5070507;28;20017;-73
2022/06/03 00:44:12;;;;;;;0.00;0.00;;;22.20;99.90;;;;;;5072700;28;20456;-73
2022/06/03 00:47:16;;;;;;;0.00;0.00;;;22.60;99.90;;;;;;5034801;28;20045;-74
2022/06/03 00:49:45;;;;;;;0.00;0.00;;;22.70;94.00;;;;;;5071109;28;20040;-74
2022/06/03 00:52:47;;;;;;;0.00;0.00;;;23.40;89.40;;;;;;5068385;28;20059;-73
2022/06/03 00:55:23;;;;;;;0.00;0.00;;;23.60;82.00;;;;;;5072803;28;20370;-73
2022/06/03 00:58:04;;;;;;;0.05;0.05;;;23.70;81.30;;;;;;5071642;28;20553;-73
2022/06/03 01:00:55;;;;;;;0.03;0.03;;;23.80;77.70;;;;;;5068639;28;20470;-73
2022/06/03 01:03:51;;;;;;;0.00;0.00;;;24.50;75.10;;;;;;5067906;28;20060;-72
2022/06/03 01:06:46;;;;;;;0.13;0.13;;;25.10;70.60;;;;;;5065934;28;20038;-73
2022/06/03 01:09:34;;;;;;;0.00;0.00;;;25.20;63.80;;;;;;5073391;28;20021;-73
2022/06/03 01:12:28;;;;;;;0.00;0.00;;;25.90;61.00;;;;;;5068194;28;20366;-72
2022/06/03 01:15:37;;;;;;;0.00;0.00;;;26.10;62.90;;;;;;5064532;28;20021;-72
2022/06/03 01:18:06;;;;;;;1.23;1.23;;;27.10;58.50;;;;;;5025402;28;20087;-73
2022/06/03 01:21:06;;;;;;;0.00;0.00;;;27.50;54.20;;;;;;5071066;28;20021;-72
2022/06/03 01:23:42;;;;;;;0.00;0.00;;;27.80;54.10;;;;;;5067073;28;20032;-72
2022/06/03 01:26:28;;;;;;;0.00;0.00;;;28.10;54.30;;;;;;5066125;28;20025;-73
2022/06/03 01:29:03;;;;;;;0.00;0.00;;;27.90;53.30;;;;;;5068960;28;20098;-73
2022/06/03 01:32:10;;;;;;;0.75;0.75;;;27.50;55.00;;;;;;5077340;28;20056;-73
2022/06/03 01:34:59;;;;;;;0.22;0.13;;;26.90;55.90;;;;;;5073311;28;20024;-73
2022/06/03 01:37:28;;;;;;;0.00;0.00;;;25.90;57.10;;;;;;5073351;28;20036;-72
2022/06/03 01:40:06;;;;;;;0.00;0.00;;;25.50;58.30;;;;;;5073994;28;20089;-73
2022/06/03 01:42:58;;;;;;;1.45;1.45;;;25.70;58.20;;;;;;5055361;28;20029;-72
2022/06/03 01:45:55;;;;;;;0.22;0.22;;;26.30;55.40;;;;;;5075428;28;20408;-73
2022/06/03 01:48:33;;;;;;;0.00;0.00;;;26.30;57.00;;;;;;5078504;28;20036;-74
2022/06/03 01:51:02;;;;;;;0.57;0.30;;;25.00;59.30;;;;;;5076550;28;20029;-73
2022/06/03 01:53:55;;;;;;;2.25;2.13;;;25.40;59.20;;;;;;5082836;28;20024;-74
2022/06/03 01:56:46;;;;;;;0.30;0.30;;;25.00;58.80;;;;;;5068100;28;20043;-73
2022/06/03 01:59:51;;;;;;;0.25;0.25;;;24.90;59.80;;;;;;5075078;28;20024;-73
2022/06/03 02:02:44;;;;;;;0.00;0.00;;;25.90;57.50;;;;;;5073738;28;20464;-74
2022/06/03 02:05:22;;;;;;;0.00;0.00;;;26.40;54.50;;;;;;5073133;28;20453;-74
2022/06/03 02:08:16;;;;;;;0.10;0.10;;;27.50;55.20;;;;;;5069158;28;20025;-74
2022/06/03 02:11:05;;;;;;;0.00;0.00;;;26.50;54.10;;;;;;5069620;28;20058;-73
2022/06/03 02:14:02;;;;;;;0.30;0.20;;;27.30;53.40;;;;;;5077576;28;20032;-73
2022/06/03 02:16:50;;;;;;;0.00;0.00;;;27.40;52.00;;;;;;5080879;28;20028;-73
2022/06/03 02:19:34;;;;;;;12.10;1.20;;;26.90;51.60;;;;;;5074505;28;20127;-73
2022/06/03 02:22:49;;;;;;;0.00;0.00;;;26.70;53.10;;;;;;5071582;28;20354;-73
2022/06/03 02:25:21;;;;;;;0.00;0.00;;;26.80;52.60;;;;;;5067380;28;20360;-74
2022/06/03 02:28:06;;;;;;;0.20;0.20;;;27.70;52.30;;;;;;5070061;28;20039;-74
2022/06/03 02:30:45;;;;;;;4.20;0.73;;;27.40;50.80;;;;;;5077872;28;20432;-74
2022/06/03 02:33:29;;;;;;;0.65;0.65;;;27.50;50.10;;;;;;5074652;28;20025;-73
2022/06/03 02:36:32;;;;;;;0.55;0.52;;;26.60;50.60;;;;;;5077762;28;20055;-72
2022/06/03 02:39:33;;;;;;;0.15;0.15;;;26.20;50.40;;;;;;5068239;28;20166;-74
2022/06/03 02:42:21;;;;;;;1.02;1.02;;;25.90;50.50;;;;;;5067278;28;20354;-73
2022/06/03 02:45:15;;;;;;;4.22;0.98;;;26.50;50.10;;;;;;5067979;28;20483;-73
2022/06/03 02:48:12;;;;;;;1.65;1.38;;;27.20;49.50;;;;;;5071309;28;20034;-73
2022/06/03 02:50:57;;;;;;;0.68;0.68;;;27.30;48.60;;;;;;5068321;28;20428;-73
2022/06/03 02:53:38;;;;;;;2.13;0.90;;;27.20;49.10;;;;;;5064704;28;20112;-74
2022/06/03 02:56:22;;;;;;;1.55;1.08;;;26.20;47.70;;;;;;5047325;28;20056;-72
2022/06/03 02:59:24;;;;;;;2.22;0.77;;;25.30;50.30;;;;;;5069501;28;20029;-74
2022/06/03 03:02:05;;;;;;;1.13;0.28;;;24.50;51.80;;;;;;5070584;28;20024;-73
2022/06/03 03:04:56;;;;;;;3.47;1.33;;;23.80;52.90;;;;;;5069038;28;20025;-72
2022/06/03 03:07:30;;;;;;;0.45;0.43;;;23.90;53.60;;;;;;5069084;28;20407;-75
2022/06/03 03:10:21;;;;;;;0.00;0.00;;;23.80;53.70;;;;;;5068165;28;20103;-74
2022/06/03 03:13:10;;;;;;;3.15;2.90;;;24.40;54.50;;;;;;5071980;28;20028;-73
2022/06/03 03:15:54;;;;;;;0.63;0.47;;;24.40;52.90;;;;;;5055226;28;20022;-74
2022/06/03 03:18:21;;;;;;;2.13;0.90;;;24.40;52.80;;;;;;5067906;28;20453;-74
2022/06/03 03:21:05;;;;;;;1.20;0.52;;;24.30;53.50;;;;;;5071159;28;20033;-74
2022/06/03 03:23:49;;;;;;;9.20;0.60;;;24.10;53.40;;;;;;5065839;28;20029;-73
2022/06/03 03:26:15;;;;;;;1.25;0.90;;;23.90;54.10;;;;;;5064733;28;20016;-72
2022/06/03 03:28:59;;;;;;;1.02;0.55;;;24.00;54.00;;;;;;5067103;28;20448;-73
2022/06/03 03:31:44;;;;;;;1.10;0.35;;;24.00;54.00;;;;;;5064483;28;20064;-72
2022/06/03 03:34:15;;;;;;;0.05;0.05;;;24.20;53.00;;;;;;5060714;28;20025;-73
2022/06/03 03:37:05;;;;;;;0.45;0.38;;;24.00;54.40;;;;;;5067565;28;20142;-74
2022/06/03 03:40:02;;;;;;;0.00;0.00;;;24.00;54.40;;;;;;5070759;28;20032;-74
2022/06/03 03:43:00;;;;;;;0.00;0.00;;;25.30;53.30;;;;;;5049208;28;20451;-74
2022/06/03 03:46:00;;;;;;;4.78;4.43;;;26.30;50.70;;;;;;5066770;28;20044;-73
2022/06/03 03:48:44;;;;;;;10.40;5.00;;;27.20;50.20;;;;;;5067613;28;20099;-73
2022/06/03 03:51:54;;;;;;;0.00;0.00;;;27.70;47.40;;;;;;5066830;28;20024;-73
2022/06/03 03:54:53;;;;;;;0.32;0.32;;;27.70;46.50;;;;;;5031625;28;20188;-74
2022/06/03 03:57:50;;;;;;;0.00;0.00;;;26.60;48.30;;;;;;5065740;28;20033;-74
2022/06/03 04:00:37;;;;;;;0.15;0.15;;;26.10;50.40;;;;;;5063191;28;20055;-74
2022/06/03 04:03:34;;;;;;;0.00;0.00;;;26.10;51.00;;;;;;5067476;28;20032;-73
2022/06/03 04:06:32;;;;;;;0.15;0.08;;;26.20;49.50;;;;;;5069273;28;20368;-74
2022/06/03 04:09:31;;;;;;;1.85;0.40;;;26.10;49.80;;;;;;5067954;28;20029;-72
2022/06/03 04:12:28;;;;;;;0.00;0.00;;;25.50;50.40;;;;;;5064019;28;20033;-74
2022/06/03 04:15:12;;;;;;;2.83;2.67;;;25.10;50.50;;;;;;5045533;28;21948;-73
2022/06/03 04:18:28;;;;;;;0.05;0.05;;;25.10;51.70;;;;;;5065542;28;20070;-72
2022/06/03 04:21:29;;;;;;;1.27;1.17;;;25.40;52.10;;;;;;5031575;28;20130;-73
2022/06/03 04:24:33;;;;;;;0.45;0.20;;;25.00;52.20;;;;;;5068129;28;20027;-74
2022/06/03 04:27:34;;;;;;;0.38;0.35;;;24.80;51.10;;;;;;5065283;28;20016;-74
2022/06/03 04:30:24;;;;;;;0.00;0.00;;;25.00;51.30;;;;;;5066868;28;20027;-74
2022/06/03 04:33:15;;;;;;;0.20;0.20;;;24.60;51.40;;;;;;5073309;28;20103;-74
2022/06/03 04:36:00;;;;;;;0.00;0.00;;;24.70;52.50;;;;;;5065254;28;20046;-74
2022/06/03 04:39:07;;;;;;;0.00;0.00;;;24.60;52.70;;;;;;5067739;28;20089;-73
2022/06/03 04:41:55;;;;;;;2.85;2.58;;;24.60;52.70;;;;;;5043068;28;20032;-74
2022/06/03 04:44:56;;;;;;;0.10;0.10;;;24.60;52.70;;;;;;5067509;28;20024;-73
2022/06/03 04:47:41;;;;;;;0.45;0.45;;;24.40;52.00;;;;;;5066260;28;20035;-73
2022/06/03 04:50:37;;;;;;;4.60;4.28;;;24.20;53.10;;;;;;5065523;28;20036;-73
2022/06/03 04:53:22;;;;;;;1.48;0.55;;;24.70;54.10;;;;;;5059794;28;20033;-74
2022/06/03 04:56:25;;;;;;;0.00;0.00;;;25.10;52.90;;;;;;5061654;28;20032;-75
2022/06/03 04:59:19;;;;;;;0.00;0.00;;;24.90;53.10;;;;;;5071367;28;20021;-73
2022/06/03 05:02:25;;;;;;;0.00;0.00;;;25.20;53.10;;;;;;5062625;28;20039;-74
2022/06/03 05:05:25;;;;;;;0.00;0.00;;;25.60;52.20;;;;;;5068979;28;20028;-74
2022/06/03 05:08:15;;;;;;;0.00;0.00;;;25.60;51.20;;;;;;5065858;28;20372;-73
2022/06/03 05:11:21;;;;;;;0.15;0.15;;;25.40;51.60;;;;;;5060287;28;20131;-75
2022/06/03 05:14:09;;;;;;;1.33;1.27;;;25.40;50.80;;;;;;5045055;28;20403;-74
2022/06/03 05:16:47;;;;;;;5.82;1.95;;;25.60;51.50;;;;;;5046505;28;20050;-75
2022/06/03 05:19:59;;;;;;;0.43;0.25;;;25.50;50.20;;;;;;5069145;28;20364;-73
2022/06/03 05:22:53;;;;;;;2.13;0.63;;;25.40;50.80;;;;;;5059462;28;20583;-74
2022/06/03 05:25:50;;;;;;;0.95;0.57;;;25.50;51.70;;;;;;5060125;28;20036;-76
2022/06/03 05:28:41;;;;;;;0.00;0.00;;;25.40;52.60;;;;;;5065431;28;20427;-74
2022/06/03 05:31:28;;;;;;;0.00;0.00;;;25.50;51.60;;;;;;5063217;28;20475;-74
2022/06/03 05:34:12;;;;;;;0.00;0.00;;;25.80;50.60;;;;;;5055819;28;20024;-73
2022/06/03 05:37:11;;;;;;;1.70;1.55;;;26.00;49.70;;;;;;5058425;28;20028;-73
2022/06/03 05:40:13;;;;;;;7.82;7.30;;;25.70;51.20;;;;;;5060453;28;20497;-73
2022/06/03 05:42:52;;;;;;;1.20;1.02;;;26.00;51.40;;;;;;5057249;28;20028;-75
2022/06/03 05:45:34;;;;;;;1.65;1.40;;;26.00;50.90;;;;;;5063406;28;20435;-73
2022/06/03 05:48:07;;;;;;;3.97;3.70;;;26.10;50.10;;;;;;5060774;28;20058;-75
2022/06/03 05:50:48;;;;;;;0.00;0.00;;;26.10;49.80;;;;;;5048289;28;20044;-73
2022/06/03 05:53:39;;;;;;;0.45;0.35;;;26.00;50.30;;;;;;5058917;28;20025;-73
2022/06/03 05:56:29;;;;;;;0.10;0.10;;;26.10;51.40;;;;;;5062498;28;20463;-73
2022/06/03 05:59:28;;;;;;;6.13;1.17;;;26.10;50.10;;;;;;5057857;28;20025;-73
2022/06/03 06:02:23;;;;;;;0.00;0.00;;;26.20;51.20;;;;;;5064571;28;20035;-73
2022/06/03 06:05:26;;;;;;;0.70;0.20;;;26.40;50.00;;;;;;5058654;28;20032;-74
2022/06/03 06:08:15;;;;;;;0.20;0.20;;;26.10;51.20;;;;;;5062142;28;20051;-74
2022/06/03 06:10:53;;;;;;;0.40;0.40;;;26.20;53.20;;;;;;5059468;28;20048;-74
2022/06/03 06:13:42;;;;;;;0.00;0.00;;;26.20;54.50;;;;;;5064876;28;20516;-73
2022/06/03 06:16:30;;;;;;;0.17;0.17;;;26.20;54.60;;;;;;5063875;28;20029;-73
2022/06/03 06:19:02;;;;;;;0.00;0.00;;;26.20;54.80;;;;;;5065540;28;20111;-73
2022/06/03 06:21:31;;;;;;;0.00;0.00;;;26.20;54.40;;;;;;5070720;28;20417;-75
2022/06/03 06:24:18;;;;;;;0.00;0.00;;;26.40;52.40;;;;;;5070060;28;20020;-74
2022/06/03 06:27:03;;;;;;;0.30;0.30;;;26.60;47.70;;;;;;5066820;28;20066;-75
2022/06/03 06:29:31;;;;;;;0.00;0.00;;;26.70;48.50;;;;;;5067465;28;20064;-73
2022/06/03 06:32:21;;;;;;;0.60;0.35;;;26.60;49.70;;;;;;5061288;28;20493;-74
2022/06/03 06:35:30;;;;;;;0.00;0.00;;;26.40;48.80;;;;;;5071959;28;20119;-74
2022/06/03 06:37:56;;;;;;;0.10;0.10;;;26.10;47.90;;;;;;5064882;28;20036;-74
2022/06/03 06:40:58;;;;;;;0.00;0.00;;;26.30;49.00;;;;;;5064102;28;20379;-73
2022/06/03 06:43:35;;;;;;;0.08;0.08;;;26.50;47.30;;;;;;5063021;28;20571;-74
2022/06/03 06:46:17;;;;;;;0.10;0.05;;;26.50;47.60;;;;;;5065475;28;20032;-74
2022/06/03 06:48:51;;;;;;;0.00;0.00;;;26.00;48.00;;;;;;5067877;28;20040;-74
2022/06/03 06:51:17;;;;;;;0.00;0.00;;;26.00;48.60;;;;;;5067320;28;20295;-72
2022/06/03 06:53:51;;;;;;;2.05;0.63;;;26.20;49.30;;;;;;5064842;28;20134;-75
2022/06/03 06:56:30;;;;;;;0.20;0.05;;;26.30;49.30;;;;;;5071680;28;20020;-74
2022/06/03 06:59:00;;;;;;;0.00;0.00;;;26.20;51.20;;;;;;5073223;28;20047;-73
2022/06/03 07:01:40;;;;;;;0.00;0.00;;;26.50;48.80;;;;;;5059462;28;20071;-74
2022/06/03 07:04:14;;;;;;;0.00;0.00;;;26.70;48.30;;;;;;5065117;28;20031;-73
2022/06/03 07:07:18;;;;;;;0.00;0.00;;;26.90;49.30;;;;;;5066440;28;20017;-72
2022/06/03 07:10:13;;;;;;;0.00;0.00;;;26.80;49.40;;;;;;4990609;28;20050;-73
2022/06/03 07:13:10;;;;;;;0.00;0.00;;;26.90;48.60;;;;;;5042401;28;20044;-73
2022/06/03 07:15:51;;;;;;;0.57;0.20;;;27.20;48.60;;;;;;5057480;28;20047;-73
2022/06/03 07:21:40;;;;;;;0.15;0.05;;;27.40;48.70;;;;;;5058415;28;20067;-76
2022/06/03 07:24:21;;;;;;;0.63;0.63;;;26.70;49.50;;;;;;5060335;28;20063;-73
2022/06/03 07:26:54;;;;;;;0.45;0.45;;;26.80;49.80;;;;;;5059086;28;20014;-73
2022/06/03 07:29:32;;;;;;;0.85;0.65;;;27.00;48.50;;;;;;5066832;28;20028;-73
2022/06/03 07:32:21;;;;;;;0.00;0.00;;;26.70;50.40;;;;;;5067310;28;20024;-74
2022/06/03 07:35:28;;;;;;;0.00;0.00;;;26.80;49.20;;;;;;5060034;28;20043;-74
2022/06/03 07:38:02;;;;;;;0.00;0.00;;;26.80;50.10;;;;;;5015735;28;20108;-73
2022/06/03 07:40:52;;;;;;;0.82;0.35;;;26.70;51.00;;;;;;5062721;28;20032;-74
2022/06/03 07:43:28;;;;;;;0.00;0.00;;;26.70;50.10;;;;;;5057308;28;20520;-75
2022/06/03 07:46:13;;;;;;;0.60;0.47;;;26.90;50.30;;;;;;5063966;28;20025;-75
2022/06/03 07:48:39;;;;;;;0.00;0.00;;;27.10;47.00;;;;;;5040653;28;20032;-74
2022/06/03 07:51:16;;;;;;;0.00;0.00;;;27.10;47.40;;;;;;5051765;28;20365;-76
2022/06/03 07:54:06;;;;;;;0.00;0.00;;;27.50;45.70;;;;;;5038405;28;20036;-75
2022/06/03 07:56:37;;;;;;;0.00;0.00;;;28.00;45.30;;;;;;5051926;28;20051;-75
2022/06/03 07:59:19;;;;;;;0.32;0.10;;;28.10;44.40;;;;;;5056623;28;20121;-75
2022/06/03 08:01:59;;;;;;;0.00;0.00;;;28.40;42.80;;;;;;5058026;28;20377;-75
2022/06/03 08:04:34;;;;;;;0.00;0.00;;;27.90;45.20;;;;;;5058009;28;20089;-75
2022/06/03 08:12:38;;;;;;;0.00;0.00;;;27.80;47.60;;;;;;5057916;28;20071;-75
2022/06/03 08:15:21;;;;;;;2.63;0.20;;;27.80;47.20;;;;;;5058245;28;20130;-74
2022/06/03 08:17:50;;;;;;;0.65;0.35;;;27.70;47.70;;;;;;5054963;28;20035;-75
2022/06/03 08:20:22;;;;;;;0.80;0.73;;;27.40;45.50;;;;;;5058488;28;20488;-74
2022/06/03 08:22:48;;;;;;;0.08;0.08;;;27.50;45.80;;;;;;5063071;28;20532;-75
2022/06/03 08:25:20;;;;;;;0.00;0.00;;;27.50;45.50;;;;;;5060683;28;20494;-75
2022/06/03 08:27:48;;;;;;;0.25;0.17;;;27.20;44.60;;;;;;5051816;28;20502;-73
2022/06/03 08:30:22;;;;;;;0.00;0.00;;;26.90;45.00;;;;;;5057992;28;20411;-75
2022/06/03 08:32:57;;;;;;;0.10;0.00;;;26.90;46.50;;;;;;5056710;28;20365;-73
2022/06/03 08:35:26;;;;;;;0.00;0.00;;;26.80;47.60;;;;;;5059755;28;20021;-74
2022/06/03 08:37:54;;;;;;;0.70;0.70;;;26.80;48.70;;;;;;5065147;28;20495;-75
2022/06/03 08:40:42;;;;;;;1.08;0.85;;;26.50;50.60;;;;;;5060167;28;20020;-73
2022/06/03 08:43:29;;;;;;;0.00;0.00;;;26.10;53.80;;;;;;5066674;28;20024;-75
2022/06/03 08:46:14;;;;;;;0.05;0.05;;;25.90;55.30;;;;;;5068090;28;20016;-74
2022/06/03 08:48:44;;;;;;;0.10;0.10;;;25.90;56.00;;;;;;5061225;28;20465;-74
2022/06/03 08:51:19;;;;;;;1.75;0.73;;;25.60;56.70;;;;;;5059875;28;20118;-74
2022/06/03 08:54:05;;;;;;;3.22;2.17;;;25.60;57.40;;;;;;5064403;28;20047;-74
2022/06/03 08:56:42;;;;;;;0.28;0.28;;;25.40;58.40;;;;;;5061740;28;20028;-74
2022/06/03 08:59:19;;;;;;;0.45;0.30;;;25.30;59.10;;;;;;5060876;28;20370;-74
2022/06/03 09:01:51;;;;;;;0.00;0.00;;;25.30;59.10;;;;;;5025333;28;20016;-74
2022/06/03 09:04:33;;;;;;;0.08;0.00;;;25.30;60.20;;;;;;5057501;28;20100;-75
2022/06/03 09:07:27;;;;;;;0.00;0.00;;;25.30;60.70;;;;;;5045708;28;20025;-73
2022/06/03 09:10:11;;;;;;;0.00;0.00;;;25.40;61.50;;;;;;5057605;28;20507;-73
2022/06/03 09:12:51;;;;;;;0.00;0.00;;;25.60;61.80;;;;;;5056724;28;20163;-74
2022/06/03 09:15:26;;;;;;;0.00;0.00;;;25.60;63.60;;;;;;5062015;28;20538;-75
2022/06/03 09:18:02;;;;;;;0.22;0.22;;;25.80;62.90;;;;;;5060370;28;20322;-75
2022/06/03 09:20:33;;;;;;;0.68;0.32;;;25.90;63.20;;;;;;5062306;28;20112;-73
2022/06/03 09:23:07;;;;;;;0.70;0.45;;;25.90;63.10;;;;;;5059483;28;20048;-75
2022/06/03 09:25:37;;;;;;;1.30;0.47;;;25.70;65.70;;;;;;5059241;28;20369;-75
2022/06/03 09:28:07;;;;;;;3.10;2.00;;;25.80;66.70;;;;;;5055662;28;20541;-74
2022/06/03 09:30:40;;;;;;;0.22;0.22;;;25.50;64.50;;;;;;5063435;28;20507;-75
2022/06/03 09:33:11;;;;;;;0.17;0.17;;;24.80;65.10;;;;;;5055677;28;20083;-75
2022/06/03 09:35:42;;;;;;;3.10;1.65;;;24.70;65.70;;;;;;5061391;28;20024;-73
2022/06/03 09:38:10;;;;;;;31.52;2.30;;;24.30;66.70;;;;;;5059936;28;20036;-75
2022/06/03 09:40:41;;;;;;;0.17;0.15;;;24.20;67.20;;;;;;5066317;28;20103;-74
2022/06/03 09:43:12;;;;;;;1.35;0.82;;;24.20;65.80;;;;;;5043449;28;20021;-73
2022/06/03 09:45:40;;;;;;;0.00;0.00;;;24.00;65.90;;;;;;5058798;28;20021;-74
2022/06/03 09:48:09;;;;;;;0.00;0.00;;;23.80;65.50;;;;;;5061391;28;20036;-73
2022/06/03 09:50:36;;;;;;;0.30;0.10;;;24.00;64.40;;;;;;5056325;28;20025;-74
2022/06/03 09:53:09;;;;;;;0.25;0.25;;;24.10;63.00;;;;;;5063806;28;20017;-75
2022/06/03 09:55:43;;;;;;;0.70;0.70;;;23.80;62.90;;;;;;5058384;28;20119;-75
2022/06/03 09:58:17;;;;;;;0.32;0.30;;;23.70;64.00;;;;;;5070549;28;20040;-73
2022/06/03 10:00:49;;;;;;;0.00;0.00;;;23.60;64.60;;;;;;5057208;28;20017;-74
2022/06/03 10:03:16;;;;;;;0.00;0.00;;;23.70;65.60;;;;;;5070572;28;20371;-75
2022/06/03 10:05:46;;;;;;;0.08;0.08;;;23.80;65.30;;;;;;5069056;28;20033;-74
2022/06/03 10:08:12;;;;;;;0.00;0.00;;;23.70;64.40;;;;;;5066340;28;20039;-74
2022/06/03 10:13:24;;;;;;;0.20;0.05;;;23.70;65.50;;;;;;5063328;28;20043;-75
2022/06/03 10:15:59;;;;;;;2.50;0.38;;;23.90;63.60;;;;;;5072890;28;20052;-74
2022/06/03 10:18:33;;;;;;;0.22;0.22;;;24.00;63.20;;;;;;5068784;28;20020;-73
2022/06/03 10:21:18;;;;;;;0.47;0.15;;;24.00;63.60;;;;;;5068235;28;20036;-75
2022/06/03 10:23:54;;;;;;;0.40;0.40;;;23.50;64.40;;;;;;5067520;28;20040;-75
2022/06/03 10:26:34;;;;;;;0.57;0.30;;;23.60;65.40;;;;;;5063347;28;20334;-74
2022/06/03 10:29:15;;;;;;;0.00;0.00;;;23.60;65.60;;;;;;5063679;28;20021;-76
2022/06/03 10:31:46;;;;;;;3.30;0.80;;;23.70;65.50;;;;;;5070730;28;20024;-74
2022/06/03 10:34:17;;;;;;;0.15;0.15;;;23.80;65.40;;;;;;5066898;28;20086;-74
2022/06/03 10:36:48;;;;;;;0.32;0.22;;;23.80;65.20;;;;;;5050800;28;20028;-75
2022/06/03 10:39:16;;;;;;;0.70;0.40;;;23.70;65.00;;;;;;5071105;28;20036;-75
2022/06/03 10:41:45;;;;;;;0.52;0.52;;;23.70;64.70;;;;;;5061870;28;20528;-73
2022/06/03 10:44:23;;;;;;;0.00;0.00;;;23.60;65.60;;;;;;5059121;28;20096;-76
2022/06/03 10:46:57;;;;;;;0.08;0.00;;;23.30;66.80;;;;;;5067505;28;20020;-75
2022/06/03 10:49:26;;;;;;;0.03;0.03;;;23.40;66.80;;;;;;5069718;28;20033;-76
2022/06/03 11:03:25;;;;;;;0.60;0.32;;;23.40;69.40;;;;;;5063544;28;20109;-74
2022/06/03 11:05:51;;;;;;;0.52;0.52;;;23.20;70.00;;;;;;5061031;28;20035;-74
2022/06/03 11:08:19;;;;;;;0.00;0.00;;;23.20;71.00;;;;;;5053334;28;20774;-73
2022/06/03 11:10:55;;;;;;;0.35;0.15;;;23.20;71.40;;;;;;5065112;28;20747;-73
2022/06/03 11:13:39;;;;;;;0.00;0.00;;;22.90;73.70;;;;;;5062906;28;20124;-73
2022/06/03 11:16:24;;;;;;;0.00;0.00;;;22.50;83.70;;;;;;5053657;28;21248;-75
2022/06/03 11:18:50;;;;;;;0.00;0.00;;;22.50;99.90;;;;;;5054682;28;20032;-74
2022/06/03 11:21:20;;;;;;;0.00;0.00;;;22.50;99.90;;;;;;5059938;28;20024;-75
2022/06/03 11:23:46;;;;;;;0.00;0.00;;;22.60;99.90;;;;;;5060063;28;20033;-74
2022/06/03 11:26:13;;;;;;;0.00;0.00;;;22.30;99.70;;;;;;5058893;28;20477;-74
2022/06/03 11:28:53;;;;;;;1.10;1.00;;;22.10;99.80;;;;;;5050978;28;20455;-75
2022/06/03 11:31:34;;;;;;;0.00;0.00;;;21.90;99.90;;;;;;5054002;28;20102;-74
2022/06/03 11:34:16;;;;;;;0.00;0.00;;;21.80;99.90;;;;;;5059684;28;20033;-74
2022/06/03 11:37:25;;;;;;;0.00;0.00;;;21.70;99.90;;;;;;5056863;28;20036;-74
2022/06/03 11:40:10;;;;;;;0.00;0.00;;;21.70;99.90;;;;;;5037815;28;20627;-75
2022/06/03 11:42:54;;;;;;;0.00;0.00;;;21.80;99.90;;;;;;5054967;28;20123;-74
2022/06/03 11:45:25;;;;;;;0.30;0.30;;;21.70;99.90;;;;;;5063877;28;20419;-75
2022/06/03 11:47:51;;;;;;;0.00;0.00;;;21.80;99.90;;;;;;5068348;28;20028;-74
2022/06/03 11:50:25;;;;;;;0.00;0.00;;;21.70;99.90;;;;;;5071084;28;20035;-75
2022/06/03 11:52:54;;;;;;;0.32;0.32;;;21.70;99.90;;;;;;5066434;28;20028;-75
2022/06/03 11:55:25;;;;;;;0.00;0.00;;;21.90;99.90;;;;;;5061614;28;20039;-76
2022/06/03 11:57:58;;;;;;;0.00;0.00;;;22.10;98.00;;;;;;5063279;28;20134;-74
2022/06/03 12:00:29;;;;;;;0.03;0.03;;;22.10;95.60;;;;;;5061320;28;20046;-75
2022/06/03 12:03:32;;;;;;;0.00;0.00;;;21.80;97.10;;;;;;5063111;28;20048;-73
2022/06/03 12:06:22;;;;;;;0.00;0.00;;;22.00;96.30;;;;;;5067029;28;20021;-74
2022/06/03 12:09:26;;;;;;;0.00;0.00;;;22.10;96.00;;;;;;5063898;28;20114;-74
2022/06/03 12:15:35;;;;;;;1.30;1.20;;;21.90;97.10;;;;;;5049130;28;20051;-75
2022/06/03 12:18:09;;;;;;;0.35;0.20;;;21.70;99.90;;;;;;5067208;28;20021;-73
2022/06/03 12:20:37;;;;;;;0.00;0.00;;;21.80;99.50;;;;;;5069713;28;20036;-75
2022/06/03 12:23:12;;;;;;;0.17;0.17;;;21.30;99.90;;;;;;5052326;28;20064;-73
2022/06/03 12:25:41;;;;;;;0.08;0.08;;;21.50;99.90;;;;;;5059919;28;20471;-73
2022/06/03 12:28:19;;;;;;;0.00;0.00;;;21.60;98.40;;;;;;5063077;28;20123;-73
2022/06/03 12:30:54;;;;;;;0.00;0.00;;;21.20;99.90;;;;;;5060517;28;20027;-75
2022/06/03 12:34:08;;;;;;;0.00;0.00;;;21.30;99.90;;;;;;5060882;28;20032;-73
2022/06/03 12:36:51;;;;;;;0.00;0.00;;;21.50;99.80;;;;;;4998962;28;20534;-74
2022/06/03 12:39:27;;;;;;;0.00;0.00;;;21.60;99.50;;;;;;5064604;28;20029;-73
2022/06/03 12:42:12;;;;;;;0.20;0.20;;;21.70;98.60;;;;;;5066103;28;20035;-73
2022/06/03 12:45:13;;;;;;;0.05;0.00;;;21.60;99.30;;;;;;5066672;28;20115;-75
2022/06/03 12:47:45;;;;;;;0.10;0.10;;;21.50;99.50;;;;;;5062611;28;20032;-73
2022/06/03 12:51:09;;;;;;;0.20;0.20;;;21.50;99.90;;;;;;5054727;28;20032;-74
2022/06/03 12:53:41;;;;;;;0.00;0.00;;;21.40;99.90;;;;;;4992276;28;20034;-74
2022/06/03 12:56:23;;;;;;;0.45;0.30;;;21.60;99.90;;;;;;4989164;28;20075;-74
2022/06/03 12:58:57;;;;;;;2.15;0.50;;;21.40;99.90;;;;;;5046468;28;20041;-74
2022/06/03 13:01:48;;;;;;;0.70;0.70;;;21.30;99.90;;;;;;5068586;28;20032;-73
2022/06/03 13:04:44;;;;;;;3.03;1.33;;;21.20;99.90;;;;;;5062055;28;20459;-73
2022/06/03 13:07:29;;;;;;;0.00;0.00;;;20.80;99.90;;;;;;5069816;28;20425;-73
2022/06/03 13:10:20;;;;;;;2.05;1.25;;;21.00;99.90;;;;;;5068274;28;20115;-73
2022/06/03 13:12:49;;;;;;;6.88;2.60;;;21.00;99.90;;;;;;5047389;28;20163;-73
2022/06/03 13:15:21;;;;;;;3.97;2.33;;;20.60;99.90;;;;;;5067626;28;20437;-73
2022/06/03 13:18:10;;;;;;;2.17;1.23;;;20.50;99.90;;;;;;5065122;28;20078;-73
2022/06/03 13:21:02;;;;;;;5.00;2.08;;;20.30;99.90;;;;;;5061699;28;20037;-74
2022/06/03 13:23:38;;;;;;;5.20;4.70;;;20.10;99.90;;;;;;5054071;28;20028;-74
2022/06/03 13:26:23;;;;;;;10.27;6.30;;;20.00;99.90;;;;;;5044093;28;20469;-73
2022/06/03 13:28:58;;;;;;;6.93;3.53;;;20.20;99.90;;;;;;5067602;28;20163;-74
2022/06/03 13:31:40;;;;;;;3.67;1.30;;;20.20;99.90;;;;;;5069735;28;20033;-73
2022/06/03 13:34:09;;;;;;;1.38;0.95;;;20.10;99.90;;;;;;5070223;28;20033;-74
2022/06/03 13:36:51;;;;;;;0.63;0.63;;;19.90;99.90;;;;;;5067826;28;20035;-73
2022/06/03 13:39:28;;;;;;;7.22;2.20;;;19.70;99.90;;;;;;5074302;28;20032;-73
2022/06/03 13:45:19;;;;;;;0.10;0.10;;;19.70;99.90;;;;;;5061628;28;20029;-73
2022/06/03 13:47:51;;;;;;;1.05;0.95;;;19.80;99.90;;;;;;5063133;28;20027;-74
2022/06/03 13:50:30;;;;;;;0.80;0.68;;;19.80;99.90;;;;;;5060079;28;20028;-73
2022/06/03 13:53:01;;;;;;;0.10;0.10;;;19.80;99.90;;;;;;5068711;28;20017;-74
2022/06/03 13:55:34;;;;;;;0.00;0.00;;;19.90;99.90;;;;;;5072323;28;20143;-74
2022/06/03 13:58:21;;;;;;;3.05;1.33;;;19.80;99.90;;;;;;5071957;28;20035;-71
2022/06/03 14:00:50;;;;;;;5.60;3.13;;;19.80;99.90;;;;;;5073002;28;20016;-73
2022/06/03 14:03:31;;;;;;;2.38;1.60;;;19.90;99.90;;;;;;5073212;28;20025;-74
2022/06/03 14:06:17;;;;;;;3.85;1.88;;;19.70;99.90;;;;;;5071954;28;20039;-74
2022/06/03 14:09:05;;;;;;;2.17;1.25;;;19.90;99.90;;;;;;5076182;28;20103;-74
2022/06/03 14:11:39;;;;;;;0.05;0.05;;;19.90;99.90;;;;;;5072405;28;20059;-74
2022/06/03 14:14:34;;;;;;;0.98;0.60;;;19.90;99.90;;;;;;5070826;28;20115;-74
2022/06/03 14:17:41;;;;;;;6.60;2.17;;;19.90;99.90;;;;;;5031812;28;20040;-74
2022/06/03 14:20:23;;;;;;;10.13;2.47;;;19.90;99.90;;;;;;5024660;28;20495;-74
2022/06/03 14:23:07;;;;;;;1.98;1.48;;;19.80;99.90;;;;;;5071754;28;20437;-72
2022/06/03 14:25:50;;;;;;;0.98;0.90;;;19.90;99.90;;;;;;5074600;28;20031;-72
2022/06/03 14:28:45;;;;;;;1.75;1.25;;;19.80;99.90;;;;;;5072834;28;20020;-74
2022/06/03 14:31:11;;;;;;;1.23;0.82;;;19.80;99.90;;;;;;5061944;28;20086;-74
2022/06/03 14:33:42;;;;;;;3.83;3.17;;;19.80;99.90;;;;;;5065972;28;20027;-73
2022/06/03 14:36:12;;;;;;;2.58;1.33;;;19.80;99.90;;;;;;5067893;28;20024;-75
2022/06/03 14:39:01;;;;;;;1.80;0.88;;;19.80;99.90;;;;;;5068890;28;20029;-73